Time;durP1;ratioP1;P1;durP2;ratioP2;P2;SDS_P1;SDS_P2;PMS_P1;PMS_P2;Temp;Humidity;BMP_temperature;BMP_pressure;BME280_temperature;BME280_humidity;BME280_pressure;Samples;Min_cycle;Max_cycle;Signal;HPM_P1;HPM_P2
2024/01/29 00:01:13;;;;;;;;;0.00;0.00;;;;;6.75;100.00;102312.94;5110951;27;69602;-84
2024/01/29 00:03:39;;;;;;;;;0.00;0.00;;;;;6.74;100.00;102311.16;5096768;27;45183;-83
2024/01/29 00:06:04;;;;;;;;;0.00;0.00;;;;;6.71;100.00;102311.16;5093690;27;55915;-84
2024/01/29 00:08:29;;;;;;;;;0.00;0.00;;;;;6.71;100.00;102317.19;5095112;27;66049;-84
2024/01/29 00:10:55;;;;;;;;;0.00;0.00;;;;;6.70;100.00;102317.16;5096145;27;63941;-84
2024/01/29 00:13:20;;;;;;;;;0.00;0.00;;;;;6.70;100.00;102315.44;5095625;27;68625;-84
2024/01/29 00:15:46;;;;;;;;;0.00;0.00;;;;;6.70;100.00;102323.19;5095418;27;45547;-84
2024/01/29 00:18:11;;;;;;;;;0.00;0.00;;;;;6.71;100.00;102329.28;5078491;27;45902;-84
2024/01/29 00:20:37;;;;;;;;;0.00;0.00;;;;;6.69;100.00;102329.25;5093901;27;60008;-84
2024/01/29 00:23:02;;;;;;;;;0.00;0.00;;;;;6.96;100.00;102322.66;5093993;27;70207;-84
2024/01/29 00:25:27;;;;;;;;;0.00;0.00;;;;;6.76;100.00;102325.88;5095013;27;45958;-84
2024/01/29 00:27:53;;;;;;;;;0.00;0.00;;;;;6.74;100.00;102319.81;5094763;27;45402;-84
2024/01/29 00:30:19;;;;;;;;;0.00;0.00;;;;;6.73;100.00;102325.84;5094988;27;52890;-84
2024/01/29 00:32:45;;;;;;;;;0.00;0.00;;;;;6.73;100.00;102323.25;5081003;27;45507;-84
2024/01/29 00:35:10;;;;;;;;;0.00;0.00;;;;;6.75;100.00;102326.72;5073863;28;69602;-85
2024/01/29 00:37:35;;;;;;;;;0.00;0.00;;;;;6.76;100.00;102325.88;5077398;27;72261;-84
2024/01/29 00:40:01;;;;;;;;;0.00;0.00;;;;;6.76;100.00;102325.88;5091447;27;45311;-84
2024/01/29 00:42:26;;;;;;;;;0.00;0.00;;;;;6.75;100.00;102325.88;5074829;28;45489;-84
2024/01/29 00:44:52;;;;;;;;;0.00;0.00;;;;;6.73;100.00;102318.06;5073688;28;74341;-84
2024/01/29 00:47:18;;;;;;;;;0.00;0.00;;;;;6.71;100.00;102324.94;5075769;28;45515;-84
2024/01/29 00:49:43;;;;;;;;;0.00;0.00;;;;;6.73;100.00;102320.66;5086934;27;45458;-85
2024/01/29 00:52:08;;;;;;;;;0.00;0.00;;;;;6.72;100.00;102325.81;5077645;27;45613;-84
2024/01/29 00:54:34;;;;;;;;;0.00;0.00;;;;;6.69;100.00;102324.06;5092917;27;67363;-84
2024/01/29 00:56:59;;;;;;;;;0.00;0.00;;;;;6.69;100.00;102333.56;5094823;27;45731;-84
2024/01/29 00:59:24;;;;;;;;;0.00;0.00;;;;;6.67;100.00;102325.78;5095778;27;55940;-84
2024/01/29 01:01:50;;;;;;;;;0.00;0.00;;;;;6.67;100.00;102328.34;5093778;27;69960;-84
2024/01/29 01:04:15;;;;;;;;;0.00;0.00;;;;;6.68;100.00;102326.63;5093497;27;73776;-84
2024/01/29 01:06:41;;;;;;;;;0.00;0.00;;;;;6.66;100.00;102325.75;5094540;27;45471;-84
2024/01/29 01:09:09;;;;;;;;;0.00;0.00;;;;;6.66;100.00;102320.56;5096137;27;45354;-84
2024/01/29 01:11:34;;;;;;;;;0.00;0.00;;;;;6.68;100.00;102324.03;5093607;27;45441;-84
2024/01/29 01:13:59;;;;;;;;;0.00;0.00;;;;;6.70;100.00;102328.38;5095541;27;45480;-84
2024/01/29 01:16:25;;;;;;;;;0.00;0.00;;;;;6.70;100.00;102328.38;5094453;27;45299;-84
2024/01/29 01:18:53;;;;;;;;;0.00;0.00;;;;;6.69;100.00;102328.38;5094726;27;45376;-84
2024/01/29 01:21:19;;;;;;;;;0.00;0.00;;;;;6.68;100.00;102322.31;5094444;27;45420;-84
2024/01/29 01:23:44;;;;;;;;;0.00;0.00;;;;;6.69;100.00;102323.22;5094460;27;47362;-84
2024/01/29 01:26:10;;;;;;;;;0.00;0.00;;;;;6.67;100.00;102323.19;5093524;27;45710;-84
2024/01/29 01:28:35;;;;;;;;;0.00;0.00;;;;;6.64;100.00;102317.09;5094098;27;45259;-84
2024/01/29 01:31:00;;;;;;;;;0.00;0.00;;;;;6.62;100.00;102324.84;5093999;27;57095;-84
2024/01/29 01:33:26;;;;;;;;;0.00;0.00;;;;;6.61;100.00;102335.16;5099062;27;45360;-84
2024/01/29 01:35:51;;;;;;;;;0.00;0.00;;;;;6.57;100.00;102331.66;5097309;27;45620;-84
2024/01/29 01:38:17;;;;;;;;;0.00;0.00;;;;;6.56;100.00;102338.56;5097320;27;56122;-84
2024/01/29 01:40:45;;;;;;;;;0.00;0.00;;;;;6.55;100.00;102338.53;5097844;27;45438;-84
2024/01/29 01:43:17;;;;;;;;;0.00;0.00;;;;;6.52;100.00;102334.19;5096924;27;45615;-84
2024/01/29 01:45:42;;;;;;;;;0.00;0.00;;;;;6.48;100.00;102334.13;5098741;27;45450;-84
2024/01/29 01:48:08;;;;;;;;;0.00;0.00;;;;;6.46;100.00;102339.28;5096854;27;68131;-84
2024/01/29 01:50:33;;;;;;;;;0.00;0.00;;;;;6.43;100.00;102331.50;5097389;27;69558;-84
2024/01/29 01:52:59;;;;;;;;;0.00;0.00;;;;;6.42;100.00;102339.22;5114673;27;45412;-84
2024/01/29 01:55:24;;;;;;;;;0.00;0.00;;;;;6.39;100.00;102332.31;5079550;27;70899;-84
2024/01/29 01:57:50;;;;;;;;;0.00;0.00;;;;;6.35;100.00;102336.56;5113164;27;64507;-84
2024/01/29 02:00:16;;;;;;;;;0.00;0.00;;;;;6.35;100.00;102339.16;5097221;27;45348;-84
2024/01/29 02:02:42;;;;;;;;;0.00;0.00;;;;;6.34;100.00;102337.41;5097791;27;67657;-84
2024/01/29 02:05:10;;;;;;;;;0.00;0.00;;;;;6.34;100.00;102341.72;5096655;27;58161;-83
2024/01/29 02:07:35;;;;;;;;;7.00;7.00;;;;;6.35;100.00;102344.31;5080627;27;45439;-84
2024/01/29 02:10:00;;;;;;;;;0.00;0.00;;;;;6.35;100.00;102338.25;5096556;27;70580;-84
2024/01/29 02:12:26;;;;;;;;;0.00;0.00;;;;;6.35;100.00;102339.16;5080691;27;55200;-84
2024/01/29 02:14:53;;;;;;;;;0.00;0.00;;;;;6.34;100.00;102339.13;5096523;27;70975;-84
2024/01/29 02:17:19;;;;;;;;;0.00;0.00;;;;;6.34;100.00;102346.88;5080198;27;45349;-84
2024/01/29 02:19:44;;;;;;;;;0.00;0.00;;;;;6.34;100.00;102344.28;5096739;27;45455;-84
2024/01/29 02:22:12;;;;;;;;;0.00;0.00;;;;;6.31;100.00;102337.34;5097645;27;67234;-84
2024/01/29 02:24:37;;;;;;;;;0.00;0.00;;;;;6.47;100.00;102341.03;5098264;27;45337;-84
2024/01/29 02:27:06;;;;;;;;;0.00;0.00;;;;;6.53;100.00;102348.84;5096366;27;64689;-84
2024/01/29 02:29:31;;;;;;;;;0.00;0.00;;;;;6.52;100.00;102351.41;5096965;27;45518;-84
2024/01/29 02:31:56;;;;;;;;;0.00;0.00;;;;;6.50;100.00;102347.94;5095565;27;47034;-85
2024/01/29 02:34:22;;;;;;;;;0.00;0.00;;;;;6.31;100.00;102344.25;5062616;27;45424;-84
2024/01/29 02:36:47;;;;;;;;;0.00;0.00;;;;;6.28;100.00;102346.78;5080328;27;45376;-84
2024/01/29 02:39:13;;;;;;;;;0.00;0.00;;;;;6.24;100.00;102342.41;5079953;27;48307;-84
2024/01/29 02:41:38;;;;;;;;;0.00;0.00;;;;;6.22;100.00;102337.22;5096761;27;47153;-84
2024/01/29 02:44:06;;;;;;;;;0.00;0.00;;;;;6.20;100.00;102338.91;5097262;27;45330;-84
2024/01/29 02:46:34;;;;;;;;;0.00;0.00;;;;;6.17;100.00;102341.47;5097029;27;45465;-84
2024/01/29 02:48:59;;;;;;;;;0.00;0.00;;;;;6.16;100.00;102340.56;5095546;27;45279;-84
2024/01/29 02:51:25;;;;;;;;;0.00;0.00;;;;;6.14;100.00;102336.25;5097288;27;67395;-84
2024/01/29 02:53:50;;;;;;;;;0.00;0.00;;;;;6.13;100.00;102334.47;5078476;27;71007;-84
2024/01/29 02:56:15;;;;;;;;;0.00;0.00;;;;;6.11;100.00;102337.06;5079606;27;45350;-84
2024/01/29 02:58:41;;;;;;;;;0.00;0.00;;;;;6.11;100.00;102331.91;5097238;27;64979;-84
2024/01/29 03:01:06;;;;;;;;;6.00;6.00;;;;;6.13;100.00;102327.63;5078851;27;62501;-84
2024/01/29 03:03:31;;;;;;;;;0.00;0.00;;;;;6.15;100.00;102332.81;5078579;27;45402;-84
2024/01/29 03:05:57;;;;;;;;;0.00;0.00;;;;;6.14;100.00;102328.47;5055362;28;68952;-84
2024/01/29 03:08:22;;;;;;;;;0.00;0.00;;;;;6.17;100.00;102342.31;5058727;28;45536;-84
2024/01/29 03:10:48;;;;;;;;;0.00;0.00;;;;;6.19;100.00;102337.19;5058977;28;45601;-83
2024/01/29 03:13:13;;;;;;;;;0.00;0.00;;;;;6.20;100.00;102341.50;5076806;28;45441;-84
2024/01/29 03:15:38;;;;;;;;;0.00;0.00;;;;;6.21;100.00;102338.06;5076570;28;65814;-84
2024/01/29 03:18:04;;;;;;;;;7.00;7.00;;;;;6.20;100.00;102339.78;5074673;28;65837;-84
2024/01/29 03:20:29;;;;;;;;;0.00;0.00;;;;;6.20;100.00;102341.50;5075544;28;45495;-84
2024/01/29 03:22:54;;;;;;;;;12.00;12.00;;;;;6.20;100.00;102338.91;5085216;27;67986;-84
2024/01/29 03:25:20;;;;;;;;;19.00;19.00;;;;;6.18;100.00;102345.78;5079185;27;45358;-84
2024/01/29 03:27:47;;;;;;;;;0.00;0.00;;;;;6.17;100.00;102351.81;5097179;27;45555;-84
2024/01/29 03:30:13;;;;;;;;;0.00;0.00;;;;;6.15;100.00;102346.59;5095797;27;46284;-84
2024/01/29 03:32:39;;;;;;;;;0.00;0.00;;;;;6.13;100.00;102340.53;5082333;27;45261;-84
2024/01/29 03:35:04;;;;;;;;;0.00;0.00;;;;;6.13;100.00;102335.38;5077005;28;45287;-84
2024/01/29 03:37:29;;;;;;;;;0.00;0.00;;;;;6.12;100.00;102333.63;5077981;27;45652;-84
2024/01/29 03:39:55;;;;;;;;;0.00;0.00;;;;;6.12;100.00;102341.38;5109351;27;46158;-84
2024/01/29 03:42:20;;;;;;;;;0.00;0.00;;;;;6.11;100.00;102334.50;5074092;28;73280;-84
2024/01/29 03:44:48;;;;;;;;;0.00;0.00;;;;;6.12;100.00;102337.94;5076226;27;69227;-84
2024/01/29 03:47:15;;;;;;;;;4.00;4.00;;;;;6.12;100.00;102341.38;5074913;28;45529;-84
2024/01/29 03:49:43;;;;;;;;;0.00;0.00;;;;;6.13;100.00;102334.47;5111773;27;75663;-84
2024/01/29 03:52:08;;;;;;;;;0.00;0.00;;;;;6.10;100.00;102327.56;5097104;27;45233;-84
2024/01/29 03:54:33;;;;;;;;;18.00;18.00;;;;;6.12;100.00;102325.00;5106668;27;69466;-84
2024/01/29 03:56:59;;;;;;;;;0.00;0.00;;;;;6.12;100.00;102325.88;5057461;28;69972;-84
2024/01/29 03:59:24;;;;;;;;;0.00;0.00;;;;;6.11;100.00;102325.84;5074169;28;67490;-85
2024/01/29 04:01:49;;;;;;;;;2.00;2.00;;;;;6.12;100.00;102330.19;5075931;28;45226;-83
2024/01/29 04:04:17;;;;;;;;;0.00;0.00;;;;;6.14;100.00;102329.34;5058101;28;45375;-84
2024/01/29 04:06:45;;;;;;;;;0.00;0.00;;;;;6.17;100.00;102329.41;5075206;28;45399;-84
2024/01/29 04:09:12;;;;;;;;;0.00;0.00;;;;;6.19;100.00;102330.28;5074825;28;46425;-83
2024/01/29 04:11:38;;;;;;;;;0.00;0.00;;;;;6.20;100.00;102336.31;5076606;27;45414;-84
2024/01/29 04:14:03;;;;;;;;;0.00;0.00;;;;;6.18;100.00;102328.56;5095218;27;45361;-84
2024/01/29 04:16:29;;;;;;;;;0.00;0.00;;;;;6.18;100.00;102328.56;5094941;27;45660;-84
2024/01/29 04:18:55;;;;;;;;;0.00;0.00;;;;;6.21;100.00;102330.31;5078399;27;46394;-83
2024/01/29 04:21:20;;;;;;;;;0.00;0.00;;;;;6.22;100.00;102334.63;5096022;27;56131;-83
2024/01/29 04:23:45;;;;;;;;;0.00;0.00;;;;;6.22;100.00;102334.63;5096036;27;61746;-84
2024/01/29 04:26:11;;;;;;;;;0.00;0.00;;;;;6.24;100.00;102345.88;5094178;27;70334;-84
2024/01/29 04:28:36;;;;;;;;;0.00;0.00;;;;;6.25;100.00;102349.34;5093672;27;45410;-84
2024/01/29 04:31:02;;;;;;;;;0.00;0.00;;;;;6.24;100.00;102356.22;5094971;27;45457;-84
2024/01/29 04:33:27;;;;;;;;;0.00;0.00;;;;;6.25;100.00;102355.38;5076195;27;45325;-84
2024/01/29 04:35:54;;;;;;;;;0.00;0.00;;;;;6.25;100.00;102355.38;5073629;28;70530;-84
2024/01/29 04:38:20;;;;;;;;;0.00;0.00;;;;;6.24;100.00;102356.22;5075892;28;45497;-84
2024/01/29 04:40:45;;;;;;;;;0.00;0.00;;;;;6.26;100.00;102353.63;5074465;28;45346;-84
2024/01/29 04:43:11;;;;;;;;;0.00;0.00;;;;;6.25;100.00;102363.13;5074920;28;45359;-84
2024/01/29 04:45:36;;;;;;;;;0.00;0.00;;;;;6.27;100.00;102363.16;5090281;27;45429;-84
2024/01/29 04:48:02;;;;;;;;;0.00;0.00;;;;;6.29;100.00;102364.91;5096069;27;46337;-84
2024/01/29 04:50:27;;;;;;;;;0.00;0.00;;;;;6.30;100.00;102369.25;5096328;27;45360;-84
2024/01/29 04:52:55;;;;;;;;;0.00;0.00;;;;;6.30;100.00;102366.66;5093778;27;69216;-84
2024/01/29 04:55:20;;;;;;;;;0.00;0.00;;;;;6.28;100.00;102362.28;5095022;27;45608;-84
2024/01/29 04:57:46;;;;;;;;;0.00;0.00;;;;;6.27;100.00;102364.00;5095580;27;60826;-84
2024/01/29 05:00:11;;;;;;;;;0.00;0.00;;;;;6.25;100.00;102357.94;5095084;27;45245;-84
2024/01/29 05:02:37;;;;;;;;;0.00;0.00;;;;;6.25;100.00;102365.72;5078001;27;45772;-84
2024/01/29 05:05:02;;;;;;;;;0.00;0.00;;;;;6.24;100.00;102364.00;5093619;27;67253;-84
2024/01/29 05:07:28;;;;;;;;;0.00;0.00;;;;;6.22;100.00;102362.22;5098292;27;48631;-84
2024/01/29 05:09:54;;;;;;;;;0.00;0.00;;;;;6.19;100.00;102361.31;5098818;27;66334;-84
2024/01/29 05:12:19;;;;;;;;;9.00;9.00;;;;;6.20;100.00;102359.59;5099382;27;45951;-83
2024/01/29 05:14:44;;;;;;;;;0.00;0.00;;;;;6.21;100.00;102361.34;5080522;27;52282;-84
2024/01/29 05:17:10;;;;;;;;;0.00;0.00;;;;;6.25;100.00;102363.13;5098286;27;45987;-84
2024/01/29 05:19:35;;;;;;;;;0.00;0.00;;;;;6.26;100.00;102362.28;5114205;27;73210;-84
2024/01/29 05:22:01;;;;;;;;;0.00;0.00;;;;;6.25;100.00;102368.28;5098616;27;69613;-83
2024/01/29 05:24:27;;;;;;;;;0.00;0.00;;;;;6.28;100.00;102364.88;5099222;27;45444;-84
2024/01/29 05:26:52;;;;;;;;;0.00;0.00;;;;;6.28;100.00;102360.59;5098082;27;45587;-84
2024/01/29 05:29:18;;;;;;;;;0.00;0.00;;;;;6.30;100.00;102361.47;5098218;27;64329;-84
2024/01/29 05:31:43;;;;;;;;;0.00;0.00;;;;;6.31;100.00;102363.19;5099155;27;45277;-84
2024/01/29 05:34:08;;;;;;;;;0.00;0.00;;;;;6.32;100.00;102361.50;5096436;27;63719;-84
2024/01/29 05:36:34;;;;;;;;;0.00;0.00;;;;;6.32;100.00;102359.78;5098951;27;45493;-84
2024/01/29 05:38:59;;;;;;;;;0.00;0.00;;;;;6.32;100.00;102366.69;5097434;27;61670;-84
2024/01/29 05:41:24;;;;;;;;;0.00;0.00;;;;;6.32;100.00;102369.28;5097222;27;58269;-83
2024/01/29 05:43:49;;;;;;;;;0.00;0.00;;;;;6.31;100.00;102370.97;5099035;27;45385;-84
2024/01/29 05:46:15;;;;;;;;;0.00;0.00;;;;;6.31;100.00;102376.13;5098200;27;75418;-85
2024/01/29 05:48:40;;;;;;;;;0.00;0.00;;;;;6.29;100.00;102364.03;5096821;27;45417;-84
2024/01/29 05:51:08;;;;;;;;;0.00;0.00;;;;;6.29;100.00;102372.66;5096468;27;69416;-84
2024/01/29 05:53:33;;;;;;;;;0.00;0.00;;;;;6.27;100.00;102379.53;5079448;27;66103;-84
2024/01/29 05:55:59;;;;;;;;;0.00;0.00;;;;;6.27;100.00;102368.31;5096382;27;45502;-84
2024/01/29 05:58:25;;;;;;;;;0.00;0.00;;;;;6.28;100.00;102381.28;5098302;27;45340;-84
2024/01/29 06:00:50;;;;;;;;;0.00;0.00;;;;;6.28;100.00;102378.69;5097594;27;45475;-84
2024/01/29 06:03:19;;;;;;;;;0.00;0.00;;;;;6.27;100.00;102376.94;5097840;27;45510;-84
2024/01/29 06:05:44;;;;;;;;;0.00;0.00;;;;;6.29;100.00;102387.31;5097461;27;47277;-84
2024/01/29 06:08:09;;;;;;;;;0.00;0.00;;;;;6.27;100.00;102387.28;5098042;27;66608;-84
2024/01/29 06:10:35;;;;;;;;;0.00;0.00;;;;;6.28;100.00;102394.22;5078972;27;45456;-84
2024/01/29 06:13:00;;;;;;;;;0.00;0.00;;;;;6.31;100.00;102389.06;5098316;27;45330;-84
2024/01/29 06:15:35;;;;;;;;;0.00;0.00;;;;;6.35;100.00;102393.47;5096878;27;65067;-89
2024/01/29 06:18:00;;;;;;;;;0.00;0.00;;;;;6.39;100.00;102392.66;5097085;27;45397;-86
2024/01/29 06:20:25;;;;;;;;;0.00;0.00;;;;;6.48;100.00;102401.38;5098126;27;64018;-84
2024/01/29 06:22:51;;;;;;;;;0.00;0.00;;;;;6.47;100.00;102399.66;5097835;27;64105;-85
2024/01/29 06:25:19;;;;;;;;;0.00;0.00;;;;;6.50;100.00;102402.28;5069475;28;46970;-84
2024/01/29 06:27:45;;;;;;;;;0.00;0.00;;;;;6.52;100.00;102403.16;5088155;27;45408;-84
2024/01/29 06:30:11;;;;;;;;;0.00;0.00;;;;;6.52;100.00;102404.06;5083067;27;45367;-81
2024/01/29 06:32:36;;;;;;;;;0.00;0.00;;;;;6.55;100.00;102406.66;5090677;27;45448;-85
2024/01/29 06:35:01;;;;;;;;;0.00;0.00;;;;;6.57;100.00;102404.09;5095344;27;75699;-83
2024/01/29 06:37:27;;;;;;;;;0.00;0.00;;;;;6.62;100.00;102401.59;5095639;27;45297;-91
2024/01/29 06:39:52;;;;;;;;;0.00;0.00;;;;;6.67;100.00;102408.56;5097059;27;69155;-89
2024/01/29 06:42:17;;;;;;;;;0.00;0.00;;;;;6.71;100.00;102404.31;5105679;27;45379;-89
2024/01/29 06:44:43;;;;;;;;;0.00;0.00;;;;;6.71;100.00;102410.34;5096537;27;45274;-83
2024/01/29 06:47:08;;;;;;;;;0.00;0.00;;;;;6.73;100.00;102418.16;5083103;27;45309;-82
2024/01/29 06:49:35;;;;;;;;;0.00;0.00;;;;;6.73;100.00;102412.97;5086900;27;53273;-82
2024/01/29 06:52:00;;;;;;;;;0.00;0.00;;;;;6.71;100.00;102404.31;5086420;27;45257;-82
2024/01/29 06:54:26;;;;;;;;;0.00;0.00;;;;;6.76;100.00;102410.41;5095031;27;45473;-82
2024/01/29 06:56:52;;;;;;;;;0.00;0.00;;;;;6.79;100.00;102411.31;5084994;27;45345;-88
2024/01/29 06:59:21;;;;;;;;;0.00;0.00;;;;;6.86;100.00;102414.00;5082349;27;45440;-86
2024/01/29 07:01:46;;;;;;;;;0.00;0.00;;;;;6.92;100.00;102414.94;5097798;27;45501;-90
2024/01/29 07:04:11;;;;;;;;;0.00;0.00;;;;;7.02;100.00;102415.06;5091390;27;46094;-90
2024/01/29 07:06:37;;;;;;;;;0.00;0.00;;;;;7.07;100.00;102408.22;5078383;28;45324;-91
2024/01/29 07:09:03;;;;;;;;;0.00;0.00;;;;;7.11;100.00;102415.19;5081866;27;54674;-90
2024/01/29 07:11:28;;;;;;;;;0.00;0.00;;;;;7.14;100.00;102418.69;5114871;27;45534;-93
2024/01/29 07:13:53;;;;;;;;;0.00;0.00;;;;;7.18;100.00;102417.84;5093285;27;47051;-89
2024/01/29 07:16:18;;;;;;;;;0.00;0.00;;;;;7.24;100.00;102424.81;5097844;27;75313;-89
2024/01/29 07:18:44;;;;;;;;;0.00;0.00;;;;;7.31;100.00;102428.38;5065717;27;66304;-92
2024/01/29 07:21:10;;;;;;;;;0.00;0.00;;;;;7.35;100.00;102418.09;5097720;27;45499;-92
2024/01/29 07:23:35;;;;;;;;;0.00;0.00;;;;;7.42;100.00;102426.78;5092788;27;47002;-90
2024/01/29 07:26:00;;;;;;;;;0.00;0.00;;;;;7.49;100.00;102435.50;5083587;27;48970;-92
2024/01/29 07:28:26;;;;;;;;;0.00;0.00;;;;;7.59;100.00;102439.03;5111139;27;60978;-92
2024/01/29 07:31:11;;;;;;;;;0.00;0.00;;;;;7.61;100.00;102448.56;5113268;27;45889;-96
2024/01/29 07:33:37;;;;;;;;;0.00;0.00;;;;;7.67;100.00;102443.47;5099065;27;46225;-96
2024/01/29 07:36:02;;;;;;;;;0.00;0.00;;;;;7.71;100.00;102449.56;5093415;27;45709;-89
2024/01/29 07:38:27;;;;;;;;;0.00;0.00;;;;;7.73;100.00;102440.06;5101905;27;45981;-91
2024/01/29 07:40:53;;;;;;;;;0.00;0.00;;;;;7.79;100.00;102450.50;5088436;27;45464;-91
2024/01/29 07:43:18;;;;;;;;;0.00;0.00;;;;;7.86;100.00;102459.22;5079958;27;74084;-91
2024/01/29 07:45:44;;;;;;;;;0.00;0.00;;;;;7.90;100.00;102466.16;5081843;27;58352;-92
2024/01/29 07:48:09;;;;;;;;;0.00;0.00;;;;;7.94;100.00;102460.13;5108891;27;45325;-91
2024/01/29 07:50:35;;;;;;;;;0.00;0.00;;;;;7.99;100.00;102455.88;5099876;27;44901;-91
2024/01/29 07:53:00;;;;;;;;;0.00;0.00;;;;;8.06;100.00;102455.09;5114454;27;47059;-91
2024/01/29 07:55:26;;;;;;;;;0.00;0.00;;;;;8.12;100.00;102454.25;5104910;27;45391;-91
2024/01/29 07:57:52;;;;;;;;;0.00;0.00;;;;;8.17;100.00;102462.06;5112939;27;66758;-91
2024/01/29 08:00:18;;;;;;;;;6.00;6.00;;;;;8.19;100.00;102460.34;5097589;27;45306;-92
2024/01/29 08:02:43;;;;;;;;;0.00;0.00;;;;;8.26;100.00;102469.94;5097469;27;46898;-92
2024/01/29 08:05:09;;;;;;;;;0.00;0.00;;;;;8.30;100.00;102471.69;5096827;27;68578;-91
2024/01/29 08:07:34;;;;;;;;;0.00;0.00;;;;;8.34;100.00;102476.06;5097402;27;45288;-92
2024/01/29 08:10:01;;;;;;;;;0.00;0.00;;;;;8.41;100.00;102469.19;5097424;27;45173;-92
2024/01/29 08:12:26;;;;;;;;;0.00;0.00;;;;;8.46;100.00;102473.59;5096576;27;47152;-92
2024/01/29 08:14:52;;;;;;;;;0.00;0.00;;;;;8.51;100.00;102476.22;5096995;27;45383;-91
2024/01/29 08:17:17;;;;;;;;;0.00;0.00;;;;;8.57;100.00;102475.41;5097067;27;45384;-92
2024/01/29 08:19:42;;;;;;;;;0.00;0.00;;;;;8.59;100.00;102464.16;5076523;27;45537;-92
2024/01/29 08:22:08;;;;;;;;;0.00;0.00;;;;;8.64;100.00;102479.78;5092948;27;48330;-91
2024/01/29 08:24:34;;;;;;;;;0.00;0.00;;;;;8.68;100.00;102472.03;5077270;27;45356;-91
2024/01/29 08:26:59;;;;;;;;;0.00;0.00;;;;;8.75;100.00;102475.53;5077090;27;45416;-92
2024/01/29 08:29:25;;;;;;;;;0.00;0.00;;;;;8.82;100.00;102476.44;5092600;27;57068;-91
2024/01/29 08:31:51;;;;;;;;;0.00;0.00;;;;;8.90;100.00;102480.81;5076143;27;47549;-91
2024/01/29 08:34:17;;;;;;;;;0.00;0.00;;;;;8.98;100.00;102480.84;5093362;27;45397;-92
2024/01/29 08:36:42;;;;;;;;;0.00;0.00;;;;;9.05;100.00;102476.56;5088591;27;45382;-91
2024/01/29 08:39:07;;;;;;;;;0.00;0.00;;;;;9.10;100.00;102478.34;5096119;27;60715;-91
2024/01/29 08:41:33;;;;;;;;;0.00;0.00;;;;;9.18;100.00;102475.78;5097622;27;48219;-91
2024/01/29 08:43:58;;;;;;;;;0.00;0.00;;;;;9.23;100.00;102481.88;5100225;27;45384;-92
2024/01/29 08:46:23;;;;;;;;;0.00;0.00;;;;;9.33;100.00;102487.09;5100444;27;45296;-92
2024/01/29 08:48:49;;;;;;;;;0.00;0.00;;;;;9.39;100.00;102476.72;5082229;27;64282;-92
2024/01/29 08:51:14;;;;;;;;;0.00;0.00;;;;;9.46;100.00;102481.94;5116734;27;56771;-92
2024/01/29 08:53:39;;;;;;;;;0.00;0.00;;;;;9.51;100.00;102481.97;5114428;27;57814;-92
2024/01/29 08:56:07;;;;;;;;;0.00;0.00;;;;;9.59;100.00;102489.78;5101152;27;45235;-92
2024/01/29 08:58:32;;;;;;;;;0.00;0.00;;;;;9.64;100.00;102480.28;5100065;27;45514;-92
2024/01/29 09:00:58;;;;;;;;;0.00;0.00;;;;;9.73;100.00;102492.41;5082718;27;48433;-92
2024/01/29 09:03:24;;;;;;;;;0.00;0.00;;;;;9.78;100.00;102486.38;5099917;27;45449;-92
2024/01/29 09:05:50;;;;;;;;;0.00;0.00;;;;;9.86;100.00;102489.88;5099977;27;45392;-91
2024/01/29 09:08:15;;;;;;;;;0.00;0.00;;;;;9.91;100.00;102484.66;5100163;27;45391;-92
2024/01/29 09:10:41;;;;;;;;;0.00;0.00;;;;;9.96;100.00;102490.75;5082251;27;70891;-92
2024/01/29 09:13:06;;;;;;;;;0.00;0.00;;;;;10.00;100.00;102487.28;5099379;27;45351;-92
2024/01/29 09:15:32;;;;;;;;;0.00;0.00;;;;;10.28;100.00;102482.97;5099431;27;45262;-91
2024/01/29 09:17:57;;;;;;;;;0.00;0.00;;;;;10.35;100.00;102481.25;5098919;27;67541;-92
2024/01/29 09:20:22;;;;;;;;;0.00;0.00;;;;;10.40;100.00;102487.34;5082058;27;47122;-92
2024/01/29 09:22:48;;;;;;;;;0.00;0.00;;;;;10.44;100.00;102485.63;5098970;27;65054;-92
2024/01/29 09:25:13;;;;;;;;;0.00;0.00;;;;;10.48;100.00;102483.88;5082708;27;45333;-92
2024/01/29 09:27:39;;;;;;;;;0.00;0.00;;;;;10.25;100.00;102480.38;5099459;27;50498;-92
2024/01/29 09:30:05;;;;;;;;;0.00;0.00;;;;;10.26;100.00;102483.84;5099588;27;46229;-92
2024/01/29 09:32:31;;;;;;;;;0.00;0.00;;;;;10.27;100.00;102477.78;5085802;27;45278;-92
2024/01/29 09:34:56;;;;;;;;;0.00;0.00;;;;;10.33;100.00;102487.34;5062638;28;45575;-92
2024/01/29 09:37:21;;;;;;;;;0.00;0.00;;;;;10.37;100.00;102487.34;5062612;28;45324;-92
2024/01/29 09:39:47;;;;;;;;;0.00;0.00;;;;;10.42;100.00;102488.22;5060969;28;67565;-92
2024/01/29 09:42:20;;;;;;;;;0.00;0.00;;;;;10.46;100.00;102491.69;5062628;28;45482;-92
2024/01/29 09:44:49;;;;;;;;;0.00;0.00;;;;;10.50;100.00;102492.56;5062680;28;45371;-91
2024/01/29 09:47:15;;;;;;;;;0.00;0.00;;;;;10.53;100.00;102492.53;5082964;27;45553;-92
2024/01/29 09:49:42;;;;;;;;;0.00;0.00;;;;;10.56;100.00;102495.16;5099560;27;47223;-92
2024/01/29 09:52:14;;;;;;;;;0.00;0.00;;;;;10.59;100.00;102498.63;5099902;27;45358;-92
2024/01/29 09:54:40;;;;;;;;;0.00;0.00;;;;;10.62;100.00;102497.72;5101043;27;45408;-92
2024/01/29 09:57:09;;;;;;;;;0.00;0.00;;;;;10.67;100.00;102498.59;5082709;27;45577;-92
2024/01/29 09:59:35;;;;;;;;;0.00;0.00;;;;;10.75;100.00;102494.22;5115406;27;46972;-92
2024/01/29 10:02:02;;;;;;;;;0.00;0.00;;;;;10.84;100.00;102491.63;5099086;27;45499;-92
2024/01/29 10:04:28;;;;;;;;;0.00;0.00;;;;;10.94;100.00;102496.81;5099166;27;45485;-92
2024/01/29 10:06:53;;;;;;;;;0.00;0.00;;;;;11.04;100.00;102499.38;5098844;27;51520;-92
2024/01/29 10:09:19;;;;;;;;;0.00;0.00;;;;;11.12;100.00;102501.09;5098832;27;48002;-92
2024/01/29 10:11:45;;;;;;;;;0.00;0.00;;;;;11.22;100.00;102498.47;5099021;27;45442;-91
2024/01/29 10:14:10;;;;;;;;;0.00;0.00;;;;;11.35;100.00;102504.50;5082310;27;45498;-92
2024/01/29 10:16:35;;;;;;;;;0.00;0.00;;;;;11.46;100.00;102488.84;5098154;27;45736;-92
2024/01/29 10:19:02;;;;;;;;;0.00;0.00;;;;;11.57;100.00;102487.03;5081315;27;46943;-92
2024/01/29 10:21:32;;;;;;;;;0.00;0.00;;;;;11.70;100.00;102486.94;5099662;27;45312;-92
2024/01/29 10:23:58;;;;;;;;;0.00;0.00;;;;;11.78;100.00;102487.78;5099077;27;45447;-92
2024/01/29 10:26:23;;;;;;;;;0.00;0.00;;;;;11.86;100.00;102488.59;5082174;27;45397;-92
2024/01/29 10:29:02;;;;;;;;;0.00;0.00;;;;;11.95;100.00;102490.31;5098422;27;48282;-93
2024/01/29 10:31:28;;;;;;;;;2.25;2.25;;;;;12.03;100.00;102482.44;5076921;28;45297;-92
2024/01/29 10:33:54;;;;;;;;;4.50;4.50;;;;;12.10;100.00;102481.50;5064093;28;45420;-93
2024/01/29 10:36:21;;;;;;;;;0.00;0.00;;;;;12.21;100.00;102479.69;5078804;28;45293;-93
2024/01/29 10:38:46;;;;;;;;;0.00;0.00;;;;;12.29;100.00;102484.84;5077875;28;47055;-92
2024/01/29 10:41:16;;;;;;;;;0.00;0.00;;;;;12.39;100.00;102481.28;5078280;28;45266;-92
2024/01/29 10:43:46;;;;;;;;;0.00;0.00;;;;;12.50;100.00;102479.44;5095182;27;45545;-93
2024/01/29 10:46:12;;;;;;;;;0.00;0.00;;;;;12.61;100.00;102476.75;5061304;28;45456;-92
2024/01/29 10:48:39;;;;;;;;;0.00;0.00;;;;;12.69;100.00;102477.50;5062428;27;47122;-93
2024/01/29 10:51:05;;;;;;;;;0.75;0.75;;;;;12.78;100.00;102469.59;5097916;27;45346;-92
2024/01/29 10:53:31;;;;;;;;;0.00;0.00;;;;;12.87;100.00;102476.47;5082036;27;45303;-93
2024/01/29 10:55:56;;;;;;;;;0.00;0.00;;;;;12.94;100.00;102477.25;5097861;27;47590;-93
2024/01/29 10:58:23;;;;;;;;;0.00;0.00;;;;;13.01;100.00;102483.28;5098213;27;50388;-93
2024/01/29 11:00:48;;;;;;;;;0.00;0.00;;;;;13.13;100.00;102477.91;5097239;27;48485;-93
2024/01/29 11:03:14;;;;;;;;;0.00;0.00;;;;;13.17;100.00;102482.22;5079729;27;67560;-93
2024/01/29 11:05:40;;;;;;;;;6.00;6.00;;;;;13.26;100.00;102482.13;5097423;27;45433;-93
2024/01/29 11:08:11;;;;;;;;;0.00;0.00;;;;;13.40;100.00;102468.88;5080706;27;48308;-93
2024/01/29 11:10:37;;;;;;;;;0.00;0.00;;;;;13.57;100.00;102478.25;5081373;27;45532;-93
2024/01/29 11:13:04;;;;;;;;;0.00;0.00;;;;;13.77;100.00;102471.00;5098890;27;45441;-93
2024/01/29 11:15:31;;;;;;;;;0.00;0.00;;;;;14.02;100.00;102470.63;5099584;27;45550;-93
2024/01/29 11:17:57;;;;;;;;;0.00;0.00;;;;;14.90;100.00;102460.34;5098749;27;47256;-93